Time;durP1;ratioP1;P1;durP2;ratioP2;P2;SDS_P1;SDS_P2;PMS_P1;PMS_P2;Temp;Humidity;BMP_temperature;BMP_pressure;BME280_temperature;BME280_humidity;BME280_pressure;Samples;Min_cycle;Max_cycle;Signal;HPM_P1;HPM_P2
2022/01/16 00:01:06;;;;;;;29.2;12.65;;;;;;;-0.29;73.01367;95841.68;;;;
2022/01/16 00:04:05;;;;;;;29.2;12.65;;;;;;;-0.29;73.01367;95841.68;;;;
2022/01/16 00:05:06;;;;;;;29.2;12.65;;;;;;;-0.29;73.01367;95841.68;;;;
2022/01/16 00:06:07;;;;;;;29.2;12.65;;;;;;;-0.29;73.01367;95841.68;;;;
2022/01/16 00:07:07;;;;;;;29.2;12.65;;;;;;;-0.29;73.01367;95841.68;;;;
2022/01/16 00:08:08;;;;;;;29.2;12.65;;;;;;;-0.29;73.01367;95841.68;;;;
2022/01/16 00:09:08;;;;;;;27.05;12.15;;;;;;;-0.32;73.12402;95804.41;;;;
2022/01/16 00:10:10;;;;;;;27.05;12.15;;;;;;;-0.32;73.12402;95804.41;;;;
2022/01/16 00:11:11;;;;;;;27.05;12.15;;;;;;;-0.32;73.12402;95804.41;;;;
2022/01/16 00:12:13;;;;;;;27.05;12.15;;;;;;;-0.32;73.12402;95804.41;;;;
2022/01/16 00:13:13;;;;;;;27.05;12.15;;;;;;;-0.32;73.12402;95804.41;;;;
2022/01/16 00:14:14;;;;;;;27.05;12.15;;;;;;;-0.32;73.12402;95804.41;;;;
2022/01/16 00:15:14;;;;;;;27.05;12.15;;;;;;;-0.32;73.12402;95804.41;;;;
2022/01/16 00:16:17;;;;;;;27.05;12.15;;;;;;;-0.32;73.12402;95804.41;;;;
2022/01/16 00:17:19;;;;;;;27.05;12.15;;;;;;;-0.32;73.12402;95804.41;;;;
2022/01/16 00:18:22;;;;;;;27.05;12.15;;;;;;;-0.32;73.12402;95804.41;;;;
2022/01/16 00:19:23;;;;;;;28.25;11.5;;;;;;;-0.35;73.27539;95823.3;;;;
2022/01/16 00:20:24;;;;;;;28.25;11.5;;;;;;;-0.35;73.27539;95823.3;;;;
2022/01/16 00:21:25;;;;;;;28.25;11.5;;;;;;;-0.35;73.27539;95823.3;;;;
2022/01/16 00:22:32;;;;;;;28.25;11.5;;;;;;;-0.35;73.27539;95823.3;;;;
2022/01/16 00:23:33;;;;;;;28.25;11.5;;;;;;;-0.35;73.27539;95823.3;;;;
2022/01/16 00:24:34;;;;;;;28.25;11.5;;;;;;;-0.35;73.27539;95823.3;;;;
2022/01/16 00:25:35;;;;;;;28.25;11.5;;;;;;;-0.35;73.27539;95823.3;;;;
2022/01/16 00:26:35;;;;;;;28.25;11.5;;;;;;;-0.35;73.27539;95823.3;;;;
2022/01/16 00:27:36;;;;;;;28.25;11.5;;;;;;;-0.35;73.27539;95823.3;;;;
2022/01/16 00:28:37;;;;;;;28.25;11.5;;;;;;;-0.35;73.27539;95823.3;;;;
2022/01/16 00:29:37;;;;;;;28.25;11.5;;;;;;;-0.35;73.27539;95823.3;;;;
2022/01/16 00:30:38;;;;;;;27.6;11.8;;;;;;;-0.39;73.30859;95765.76;;;;
2022/01/16 00:31:38;;;;;;;27.6;11.8;;;;;;;-0.39;73.30859;95765.76;;;;
2022/01/16 00:32:40;;;;;;;27.6;11.8;;;;;;;-0.39;73.30859;95765.76;;;;
2022/01/16 00:33:44;;;;;;;27.6;11.8;;;;;;;-0.39;73.30859;95765.76;;;;
2022/01/16 00:34:44;;;;;;;27.6;11.8;;;;;;;-0.39;73.30859;95765.76;;;;
2022/01/16 00:35:45;;;;;;;27.6;11.8;;;;;;;-0.39;73.30859;95765.76;;;;
2022/01/16 00:36:46;;;;;;;27.6;11.8;;;;;;;-0.39;73.30859;95765.76;;;;
2022/01/16 00:37:47;;;;;;;27.6;11.8;;;;;;;-0.39;73.30859;95765.76;;;;
2022/01/16 00:38:47;;;;;;;27.6;11.8;;;;;;;-0.39;73.30859;95765.76;;;;
2022/01/16 00:39:49;;;;;;;27.6;11.8;;;;;;;-0.39;73.30859;95765.76;;;;
2022/01/16 00:40:49;;;;;;;27.7;11.05;;;;;;;-0.42;73.4707;95789.11;;;;
2022/01/16 00:41:50;;;;;;;27.7;11.05;;;;;;;-0.42;73.4707;95789.11;;;;
2022/01/16 00:42:51;;;;;;;27.7;11.05;;;;;;;-0.42;73.4707;95789.11;;;;
2022/01/16 00:43:52;;;;;;;27.7;11.05;;;;;;;-0.42;73.4707;95789.11;;;;
2022/01/16 00:44:53;;;;;;;27.7;11.05;;;;;;;-0.42;73.4707;95789.11;;;;
2022/01/16 00:45:54;;;;;;;27.7;11.05;;;;;;;-0.42;73.4707;95789.11;;;;
2022/01/16 00:46:54;;;;;;;27.7;11.05;;;;;;;-0.42;73.4707;95789.11;;;;
2022/01/16 00:47:55;;;;;;;27.7;11.05;;;;;;;-0.42;73.4707;95789.11;;;;
2022/01/16 00:48:56;;;;;;;27.7;11.05;;;;;;;-0.42;73.4707;95789.11;;;;
2022/01/16 00:49:56;;;;;;;27.7;11.05;;;;;;;-0.42;73.4707;95789.11;;;;
2022/01/16 00:50:57;;;;;;;27.7;11.05;;;;;;;-0.42;73.4707;95789.11;;;;
2022/01/16 00:51:57;;;;;;;26.5;10.75;;;;;;;-0.37;73.51172;95789.47;;;;
2022/01/16 00:52:58;;;;;;;26.5;10.75;;;;;;;-0.37;73.51172;95789.47;;;;
2022/01/16 00:53:59;;;;;;;26.5;10.75;;;;;;;-0.37;73.51172;95789.47;;;;
2022/01/16 00:55:03;;;;;;;26.5;10.75;;;;;;;-0.37;73.51172;95789.47;;;;
2022/01/16 00:56:04;;;;;;;26.5;10.75;;;;;;;-0.37;73.51172;95789.47;;;;
2022/01/16 00:57:06;;;;;;;26.5;10.75;;;;;;;-0.37;73.51172;95789.47;;;;
2022/01/16 00:58:06;;;;;;;26.5;10.75;;;;;;;-0.37;73.51172;95789.47;;;;
2022/01/16 00:59:07;;;;;;;26.5;10.75;;;;;;;-0.37;73.51172;95789.47;;;;
2022/01/16 01:00:08;;;;;;;26.5;10.75;;;;;;;-0.37;73.51172;95789.47;;;;
2022/01/16 01:01:10;;;;;;;26.5;10.75;;;;;;;-0.37;73.51172;95789.47;;;;
2022/01/16 01:02:11;;;;;;;31.6;12.15;;;;;;;-0.31;73.44824;95795.48;;;;
2022/01/16 01:03:11;;;;;;;31.6;12.15;;;;;;;-0.31;73.44824;95795.48;;;;
2022/01/16 01:04:12;;;;;;;31.6;12.15;;;;;;;-0.31;73.44824;95795.48;;;;
2022/01/16 01:05:12;;;;;;;31.6;12.15;;;;;;;-0.31;73.44824;95795.48;;;;
2022/01/16 01:06:13;;;;;;;31.6;12.15;;;;;;;-0.31;73.44824;95795.48;;;;
2022/01/16 01:07:14;;;;;;;31.6;12.15;;;;;;;-0.31;73.44824;95795.48;;;;
2022/01/16 01:08:15;;;;;;;31.6;12.15;;;;;;;-0.31;73.44824;95795.48;;;;
2022/01/16 01:09:16;;;;;;;31.6;12.15;;;;;;;-0.31;73.44824;95795.48;;;;
2022/01/16 01:10:18;;;;;;;31.6;12.15;;;;;;;-0.31;73.44824;95795.48;;;;
2022/01/16 01:11:23;;;;;;;31.6;12.15;;;;;;;-0.31;73.44824;95795.48;;;;
2022/01/16 01:12:28;;;;;;;31.6;12.15;;;;;;;-0.31;73.44824;95795.48;;;;
2022/01/16 01:13:34;;;;;;;46.7;12.6;;;;;;;-0.33;73.48926;95827.48;;;;
2022/01/16 01:14:40;;;;;;;46.7;12.6;;;;;;;-0.33;73.48926;95827.48;;;;
2022/01/16 01:15:43;;;;;;;46.7;12.6;;;;;;;-0.33;73.48926;95827.48;;;;
2022/01/16 01:16:53;;;;;;;46.7;12.6;;;;;;;-0.33;73.48926;95827.48;;;;
2022/01/16 01:17:54;;;;;;;46.7;12.6;;;;;;;-0.33;73.48926;95827.48;;;;
2022/01/16 01:18:54;;;;;;;46.7;12.6;;;;;;;-0.33;73.48926;95827.48;;;;
2022/01/16 01:19:55;;;;;;;46.7;12.6;;;;;;;-0.33;73.48926;95827.48;;;;
2022/01/16 01:20:57;;;;;;;46.7;12.6;;;;;;;-0.33;73.48926;95827.48;;;;
2022/01/16 01:21:58;;;;;;;46.7;12.6;;;;;;;-0.33;73.48926;95827.48;;;;
2022/01/16 01:23:00;;;;;;;46.7;12.6;;;;;;;-0.33;73.48926;95827.48;;;;
2022/01/16 01:24:01;;;;;;;44.4;12.25;;;;;;;-0.34;73.56934;95739.17;;;;
2022/01/16 01:25:01;;;;;;;44.4;12.25;;;;;;;-0.34;73.56934;95739.17;;;;
2022/01/16 01:26:03;;;;;;;44.4;12.25;;;;;;;-0.34;73.56934;95739.17;;;;
2022/01/16 01:27:12;;;;;;;44.4;12.25;;;;;;;-0.34;73.56934;95739.17;;;;
2022/01/16 01:28:12;;;;;;;44.4;12.25;;;;;;;-0.34;73.56934;95739.17;;;;
2022/01/16 01:29:17;;;;;;;44.4;12.25;;;;;;;-0.34;73.56934;95739.17;;;;
2022/01/16 01:30:18;;;;;;;44.4;12.25;;;;;;;-0.34;73.56934;95739.17;;;;
2022/01/16 01:31:20;;;;;;;44.4;12.25;;;;;;;-0.34;73.56934;95739.17;;;;
2022/01/16 01:32:21;;;;;;;44.4;12.25;;;;;;;-0.34;73.56934;95739.17;;;;
2022/01/16 01:33:24;;;;;;;44.4;12.25;;;;;;;-0.34;73.56934;95739.17;;;;
2022/01/16 01:34:24;;;;;;;31.75;11.6;;;;;;;-0.41;73.6709;95770.39;;;;
2022/01/16 01:35:25;;;;;;;31.75;11.6;;;;;;;-0.41;73.6709;95770.39;;;;
2022/01/16 01:36:26;;;;;;;31.75;11.6;;;;;;;-0.41;73.6709;95770.39;;;;
2022/01/16 01:37:27;;;;;;;31.75;11.6;;;;;;;-0.41;73.6709;95770.39;;;;
2022/01/16 01:38:27;;;;;;;31.75;11.6;;;;;;;-0.41;73.6709;95770.39;;;;
2022/01/16 01:39:29;;;;;;;31.75;11.6;;;;;;;-0.41;73.6709;95770.39;;;;
2022/01/16 01:40:29;;;;;;;31.75;11.6;;;;;;;-0.41;73.6709;95770.39;;;;
2022/01/16 01:41:30;;;;;;;31.75;11.6;;;;;;;-0.41;73.6709;95770.39;;;;
2022/01/16 01:42:33;;;;;;;31.75;11.6;;;;;;;-0.41;73.6709;95770.39;;;;
2022/01/16 01:53:59;;;;;;;29.6;11.75;;;;;;;-0.36;73.9082;95799.11;;;;
2022/01/16 01:55:01;;;;;;;29.6;11.75;;;;;;;-0.36;73.9082;95799.11;;;;
2022/01/16 01:56:02;;;;;;;29.75;11.9;;;;;;;-0.32;73.875;95768.12;;;;
2022/01/16 01:57:04;;;;;;;29.75;11.9;;;;;;;-0.32;73.875;95768.12;;;;
2022/01/16 01:58:05;;;;;;;29.75;11.9;;;;;;;-0.32;73.875;95768.12;;;;
2022/01/16 01:59:06;;;;;;;29.75;11.9;;;;;;;-0.32;73.875;95768.12;;;;
2022/01/16 02:00:08;;;;;;;29.75;11.9;;;;;;;-0.32;73.875;95768.12;;;;
2022/01/16 02:01:09;;;;;;;29.75;11.9;;;;;;;-0.32;73.875;95768.12;;;;
2022/01/16 02:02:10;;;;;;;29.75;11.9;;;;;;;-0.32;73.875;95768.12;;;;
2022/01/16 02:03:16;;;;;;;29.75;11.9;;;;;;;-0.32;73.875;95768.12;;;;
2022/01/16 02:04:16;;;;;;;29.75;11.9;;;;;;;-0.32;73.875;95768.12;;;;
2022/01/16 02:05:17;;;;;;;29.75;11.9;;;;;;;-0.32;73.875;95768.12;;;;
2022/01/16 02:06:18;;;;;;;30.15;12.5;;;;;;;-0.37;73.95996;95821.72;;;;
2022/01/16 02:07:20;;;;;;;30.15;12.5;;;;;;;-0.37;73.95996;95821.72;;;;
2022/01/16 02:08:25;;;;;;;30.15;12.5;;;;;;;-0.37;73.95996;95821.72;;;;
2022/01/16 02:09:26;;;;;;;30.15;12.5;;;;;;;-0.37;73.95996;95821.72;;;;
2022/01/16 02:10:27;;;;;;;30.15;12.5;;;;;;;-0.37;73.95996;95821.72;;;;
2022/01/16 02:11:28;;;;;;;30.15;12.5;;;;;;;-0.37;73.95996;95821.72;;;;
2022/01/16 02:12:31;;;;;;;30.15;12.5;;;;;;;-0.37;73.95996;95821.72;;;;
2022/01/16 02:13:35;;;;;;;30.15;12.5;;;;;;;-0.37;73.95996;95821.72;;;;
2022/01/16 02:14:52;;;;;;;30.15;12.5;;;;;;;-0.37;73.95996;95821.72;;;;
2022/01/16 02:31:38;;;;;;;33.80001;12.5;;;;;;;-0.37;74.23145;95806.22;;;;
2022/01/16 02:32:48;;;;;;;33.80001;12.5;;;;;;;-0.37;74.23145;95806.22;;;;
2022/01/16 02:34:54;;;;;;;33.80001;12.5;;;;;;;-0.37;74.23145;95806.22;;;;
2022/01/16 02:35:56;;;;;;;33.80001;12.5;;;;;;;-0.37;74.23145;95806.22;;;;
2022/01/16 02:37:00;;;;;;;33.80001;12.5;;;;;;;-0.37;74.23145;95806.22;;;;
2022/01/16 02:38:04;;;;;;;33.80001;12.5;;;;;;;-0.37;74.23145;95806.22;;;;
2022/01/16 02:39:07;;;;;;;39.4;12.9;;;;;;;-0.41;74.43164;95801.37;;;;
2022/01/16 02:40:14;;;;;;;39.4;12.9;;;;;;;-0.41;74.43164;95801.37;;;;
2022/01/16 02:41:16;;;;;;;39.4;12.9;;;;;;;-0.41;74.43164;95801.37;;;;
2022/01/16 02:42:17;;;;;;;39.4;12.9;;;;;;;-0.41;74.43164;95801.37;;;;
2022/01/16 02:43:22;;;;;;;39.4;12.9;;;;;;;-0.41;74.43164;95801.37;;;;
2022/01/16 02:44:31;;;;;;;39.4;12.9;;;;;;;-0.41;74.43164;95801.37;;;;
2022/01/16 02:45:32;;;;;;;39.4;12.9;;;;;;;-0.41;74.43164;95801.37;;;;
2022/01/16 02:46:36;;;;;;;39.4;12.9;;;;;;;-0.41;74.43164;95801.37;;;;
2022/01/16 02:47:37;;;;;;;39.4;12.9;;;;;;;-0.41;74.43164;95801.37;;;;
2022/01/16 02:48:37;;;;;;;39.4;12.9;;;;;;;-0.41;74.43164;95801.37;;;;
2022/01/16 02:49:40;;;;;;;33.05;13.25;;;;;;;-0.41;74.62988;95782.42;;;;
2022/01/16 02:50:41;;;;;;;33.05;13.25;;;;;;;-0.41;74.62988;95782.42;;;;
2022/01/16 02:51:41;;;;;;;33.05;13.25;;;;;;;-0.41;74.62988;95782.42;;;;
2022/01/16 02:52:43;;;;;;;33.05;13.25;;;;;;;-0.41;74.62988;95782.42;;;;
2022/01/16 02:53:44;;;;;;;33.05;13.25;;;;;;;-0.41;74.62988;95782.42;;;;
2022/01/16 02:54:45;;;;;;;33.05;13.25;;;;;;;-0.41;74.62988;95782.42;;;;
2022/01/16 02:55:47;;;;;;;33.05;13.25;;;;;;;-0.41;74.62988;95782.42;;;;
2022/01/16 02:56:48;;;;;;;33.05;13.25;;;;;;;-0.41;74.62988;95782.42;;;;
2022/01/16 02:57:49;;;;;;;33.05;13.25;;;;;;;-0.41;74.62988;95782.42;;;;
2022/01/16 02:58:53;;;;;;;33.05;13.25;;;;;;;-0.41;74.62988;95782.42;;;;
2022/01/16 02:59:53;;;;;;;37.9;14.05;;;;;;;-0.4;74.6748;95762.78;;;;
2022/01/16 03:00:55;;;;;;;37.9;14.05;;;;;;;-0.4;74.6748;95762.78;;;;
2022/01/16 03:01:56;;;;;;;37.9;14.05;;;;;;;-0.4;74.6748;95762.78;;;;
2022/01/16 03:02:57;;;;;;;37.9;14.05;;;;;;;-0.4;74.6748;95762.78;;;;
2022/01/16 03:03:58;;;;;;;37.9;14.05;;;;;;;-0.4;74.6748;95762.78;;;;
2022/01/16 03:04:58;;;;;;;37.9;14.05;;;;;;;-0.4;74.6748;95762.78;;;;
2022/01/16 03:05:59;;;;;;;37.9;14.05;;;;;;;-0.4;74.6748;95762.78;;;;
2022/01/16 03:06:59;;;;;;;37.9;14.05;;;;;;;-0.4;74.6748;95762.78;;;;
2022/01/16 03:08:04;;;;;;;37.9;14.05;;;;;;;-0.4;74.6748;95762.78;;;;
2022/01/16 03:09:06;;;;;;;37.9;14.05;;;;;;;-0.4;74.6748;95762.78;;;;
2022/01/16 03:10:30;;;;;;;37.95;13.8;;;;;;;-0.37;74.78418;95743.47;;;;
2022/01/16 03:11:35;;;;;;;37.95;13.8;;;;;;;-0.37;74.78418;95743.47;;;;
2022/01/16 03:12:36;;;;;;;37.95;13.8;;;;;;;-0.37;74.78418;95743.47;;;;
2022/01/16 03:13:36;;;;;;;37.95;13.8;;;;;;;-0.37;74.78418;95743.47;;;;
2022/01/16 03:14:40;;;;;;;37.95;13.8;;;;;;;-0.37;74.78418;95743.47;;;;
2022/01/16 03:15:40;;;;;;;37.95;13.8;;;;;;;-0.37;74.78418;95743.47;;;;
2022/01/16 03:16:44;;;;;;;37.95;13.8;;;;;;;-0.37;74.78418;95743.47;;;;
2022/01/16 03:22:49;;;;;;;37.95;13.05;;;;;;;-0.34;74.88281;95735.19;;;;
2022/01/16 03:23:49;;;;;;;37.95;13.05;;;;;;;-0.34;74.88281;95735.19;;;;
2022/01/16 03:24:50;;;;;;;37.95;13.05;;;;;;;-0.34;74.88281;95735.19;;;;
2022/01/16 03:25:50;;;;;;;37.95;13.05;;;;;;;-0.34;74.88281;95735.19;;;;
2022/01/16 03:26:52;;;;;;;37.95;13.05;;;;;;;-0.34;74.88281;95735.19;;;;
2022/01/16 03:27:55;;;;;;;37.95;13.05;;;;;;;-0.34;74.88281;95735.19;;;;
2022/01/16 03:28:55;;;;;;;37.95;13.05;;;;;;;-0.34;74.88281;95735.19;;;;
2022/01/16 03:29:57;;;;;;;37.95;13.05;;;;;;;-0.34;74.88281;95735.19;;;;
2022/01/16 03:30:58;;;;;;;37.95;13.05;;;;;;;-0.34;74.88281;95735.19;;;;
2022/01/16 03:31:58;;;;;;;38.6;12.85;;;;;;;-0.35;75.03809;95733.54;;;;
2022/01/16 03:33:01;;;;;;;38.6;12.85;;;;;;;-0.35;75.03809;95733.54;;;;
2022/01/16 03:34:01;;;;;;;38.6;12.85;;;;;;;-0.35;75.03809;95733.54;;;;
2022/01/16 03:35:02;;;;;;;38.6;12.85;;;;;;;-0.35;75.03809;95733.54;;;;
2022/01/16 03:36:03;;;;;;;38.6;12.85;;;;;;;-0.35;75.03809;95733.54;;;;
2022/01/16 03:37:04;;;;;;;38.6;12.85;;;;;;;-0.35;75.03809;95733.54;;;;
2022/01/16 03:38:05;;;;;;;38.6;12.85;;;;;;;-0.35;75.03809;95733.54;;;;
2022/01/16 03:39:06;;;;;;;38.6;12.85;;;;;;;-0.35;75.03809;95733.54;;;;
2022/01/16 03:40:10;;;;;;;38.6;12.85;;;;;;;-0.35;75.03809;95733.54;;;;
2022/01/16 03:41:12;;;;;;;38.6;12.85;;;;;;;-0.35;75.03809;95733.54;;;;
2022/01/16 03:42:12;;;;;;;31.05;11.9;;;;;;;-0.39;75.08203;95727.78;;;;
2022/01/16 03:43:14;;;;;;;31.05;11.9;;;;;;;-0.39;75.08203;95727.78;;;;
2022/01/16 03:44:14;;;;;;;31.05;11.9;;;;;;;-0.39;75.08203;95727.78;;;;
2022/01/16 03:45:15;;;;;;;31.05;11.9;;;;;;;-0.39;75.08203;95727.78;;;;
2022/01/16 03:46:16;;;;;;;31.05;11.9;;;;;;;-0.39;75.08203;95727.78;;;;
2022/01/16 03:47:17;;;;;;;31.05;11.9;;;;;;;-0.39;75.08203;95727.78;;;;
2022/01/16 03:48:17;;;;;;;31.05;11.9;;;;;;;-0.39;75.08203;95727.78;;;;
2022/01/16 03:49:18;;;;;;;31.05;11.9;;;;;;;-0.39;75.08203;95727.78;;;;
2022/01/16 03:50:21;;;;;;;31.05;11.9;;;;;;;-0.39;75.08203;95727.78;;;;
2022/01/16 03:51:21;;;;;;;31.05;11.9;;;;;;;-0.39;75.08203;95727.78;;;;
2022/01/16 03:52:22;;;;;;;31.05;11.9;;;;;;;-0.39;75.08203;95727.78;;;;
2022/01/16 03:53:22;;;;;;;40.9;13.3;;;;;;;-0.41;75.25586;95721.42;;;;
2022/01/16 03:54:23;;;;;;;40.9;13.3;;;;;;;-0.41;75.25586;95721.42;;;;
2022/01/16 03:55:26;;;;;;;40.9;13.3;;;;;;;-0.41;75.25586;95721.42;;;;
2022/01/16 03:56:27;;;;;;;40.9;13.3;;;;;;;-0.41;75.25586;95721.42;;;;
2022/01/16 03:57:27;;;;;;;40.9;13.3;;;;;;;-0.41;75.25586;95721.42;;;;
2022/01/16 03:58:28;;;;;;;40.9;13.3;;;;;;;-0.41;75.25586;95721.42;;;;
2022/01/16 03:59:28;;;;;;;40.9;13.3;;;;;;;-0.41;75.25586;95721.42;;;;
2022/01/16 04:00:29;;;;;;;40.9;13.3;;;;;;;-0.41;75.25586;95721.42;;;;
2022/01/16 04:01:30;;;;;;;40.9;13.3;;;;;;;-0.41;75.25586;95721.42;;;;
2022/01/16 04:02:30;;;;;;;40.9;13.3;;;;;;;-0.41;75.25586;95721.42;;;;
2022/01/16 04:03:31;;;;;;;40.9;13.3;;;;;;;-0.41;75.25586;95721.42;;;;
2022/01/16 04:04:31;;;;;;;40.9;13.3;;;;;;;-0.41;75.25586;95721.42;;;;
2022/01/16 04:05:32;;;;;;;40.9;13.3;;;;;;;-0.41;75.25586;95721.42;;;;
2022/01/16 04:06:32;;;;;;;40.9;13.3;;;;;;;-0.41;75.25586;95721.42;;;;
2022/01/16 04:07:35;;;;;;;40.9;13.3;;;;;;;-0.41;75.25586;95721.42;;;;
2022/01/16 04:08:36;;;;;;;40.9;13.3;;;;;;;-0.41;75.25586;95721.42;;;;
2022/01/16 04:09:37;;;;;;;40.9;13.3;;;;;;;-0.41;75.25586;95721.42;;;;
2022/01/16 04:10:38;;;;;;;40.9;13.3;;;;;;;-0.41;75.25586;95721.42;;;;
2022/01/16 04:11:44;;;;;;;40.9;13.3;;;;;;;-0.41;75.25586;95721.42;;;;
2022/01/16 04:12:46;;;;;;;40.9;13.3;;;;;;;-0.41;75.25586;95721.42;;;;
2022/01/16 04:13:50;;;;;;;40.9;13.3;;;;;;;-0.41;75.25586;95721.42;;;;
2022/01/16 04:15:56;;;;;;;34.25;13.55;;;;;;;-0.32;75.29297;95731.47;;;;
2022/01/16 04:16:57;;;;;;;34.25;13.55;;;;;;;-0.32;75.29297;95731.47;;;;
2022/01/16 04:17:57;;;;;;;34.25;13.55;;;;;;;-0.32;75.29297;95731.47;;;;
2022/01/16 04:18:58;;;;;;;34.25;13.55;;;;;;;-0.32;75.29297;95731.47;;;;
2022/01/16 04:19:59;;;;;;;34.25;13.55;;;;;;;-0.32;75.29297;95731.47;;;;
2022/01/16 04:21:00;;;;;;;34.25;13.55;;;;;;;-0.32;75.29297;95731.47;;;;
2022/01/16 04:22:00;;;;;;;34.25;13.55;;;;;;;-0.32;75.29297;95731.47;;;;
2022/01/16 04:23:01;;;;;;;34.25;13.55;;;;;;;-0.32;75.29297;95731.47;;;;
2022/01/16 04:24:03;;;;;;;34.25;13.55;;;;;;;-0.32;75.29297;95731.47;;;;
2022/01/16 04:25:04;;;;;;;31.35;13.8;;;;;;;-0.4;75.27832;95751.34;;;;
2022/01/16 04:26:05;;;;;;;31.35;13.8;;;;;;;-0.4;75.27832;95751.34;;;;
2022/01/16 04:27:06;;;;;;;31.35;13.8;;;;;;;-0.4;75.27832;95751.34;;;;
2022/01/16 04:28:07;;;;;;;31.35;13.8;;;;;;;-0.4;75.27832;95751.34;;;;
2022/01/16 04:29:08;;;;;;;31.35;13.8;;;;;;;-0.4;75.27832;95751.34;;;;
2022/01/16 04:30:08;;;;;;;31.35;13.8;;;;;;;-0.4;75.27832;95751.34;;;;
2022/01/16 04:31:09;;;;;;;31.35;13.8;;;;;;;-0.4;75.27832;95751.34;;;;
2022/01/16 04:32:10;;;;;;;31.35;13.8;;;;;;;-0.4;75.27832;95751.34;;;;
2022/01/16 04:33:11;;;;;;;31.35;13.8;;;;;;;-0.4;75.27832;95751.34;;;;
2022/01/16 04:34:12;;;;;;;31.35;13.8;;;;;;;-0.4;75.27832;95751.34;;;;
2022/01/16 04:35:12;;;;;;;31.35;13.8;;;;;;;-0.4;75.27832;95751.34;;;;
2022/01/16 04:36:13;;;;;;;27.15;12.6;;;;;;;-0.44;75.55273;95746;;;;
2022/01/16 04:37:13;;;;;;;27.15;12.6;;;;;;;-0.44;75.55273;95746;;;;
2022/01/16 04:38:14;;;;;;;27.15;12.6;;;;;;;-0.44;75.55273;95746;;;;
2022/01/16 04:39:17;;;;;;;27.15;12.6;;;;;;;-0.44;75.55273;95746;;;;
2022/01/16 04:40:18;;;;;;;27.15;12.6;;;;;;;-0.44;75.55273;95746;;;;
2022/01/16 04:46:16;;;;;;;27.15;12.6;;;;;;;-0.44;75.55273;95746;;;;
2022/01/16 04:47:19;;;;;;;27.15;12.6;;;;;;;-0.44;75.55273;95746;;;;
2022/01/16 04:48:19;;;;;;;27.15;12.6;;;;;;;-0.44;75.55273;95746;;;;
2022/01/16 04:49:20;;;;;;;27.15;12.6;;;;;;;-0.44;75.55273;95746;;;;
2022/01/16 04:50:22;;;;;;;27.15;12.6;;;;;;;-0.44;75.55273;95746;;;;
2022/01/16 04:51:22;;;;;;;27.15;12.6;;;;;;;-0.44;75.55273;95746;;;;
2022/01/16 04:52:26;;;;;;;27.15;12.6;;;;;;;-0.44;75.55273;95746;;;;
2022/01/16 04:53:27;;;;;;;27.15;12.6;;;;;;;-0.44;75.55273;95746;;;;
2022/01/16 04:54:27;;;;;;;27.15;12.6;;;;;;;-0.44;75.55273;95746;;;;
2022/01/16 04:55:28;;;;;;;27.15;12.6;;;;;;;-0.44;75.55273;95746;;;;
2022/01/16 04:56:28;;;;;;;27.15;12.6;;;;;;;-0.44;75.55273;95746;;;;
2022/01/16 04:57:29;;;;;;;38.7;13;;;;;;;-0.62;75.9375;95756.68;;;;
2022/01/16 04:58:29;;;;;;;38.7;13;;;;;;;-0.62;75.9375;95756.68;;;;
2022/01/16 04:59:30;;;;;;;38.7;13;;;;;;;-0.62;75.9375;95756.68;;;;
2022/01/16 05:00:31;;;;;;;38.7;13;;;;;;;-0.62;75.9375;95756.68;;;;
2022/01/16 05:01:31;;;;;;;38.7;13;;;;;;;-0.62;75.9375;95756.68;;;;
2022/01/16 05:02:32;;;;;;;38.7;13;;;;;;;-0.62;75.9375;95756.68;;;;
2022/01/16 05:03:32;;;;;;;38.7;13;;;;;;;-0.62;75.9375;95756.68;;;;
2022/01/16 05:04:34;;;;;;;38.7;13;;;;;;;-0.62;75.9375;95756.68;;;;
2022/01/16 05:05:35;;;;;;;38.7;13;;;;;;;-0.62;75.9375;95756.68;;;;
2022/01/16 05:06:35;;;;;;;38.7;13;;;;;;;-0.62;75.9375;95756.68;;;;
2022/01/16 05:07:36;;;;;;;26.35;12.95;;;;;;;-0.72;76.26465;95761.24;;;;
2022/01/16 05:08:36;;;;;;;26.35;12.95;;;;;;;-0.72;76.26465;95761.24;;;;
2022/01/16 05:09:37;;;;;;;26.35;12.95;;;;;;;-0.72;76.26465;95761.24;;;;
2022/01/16 05:10:38;;;;;;;26.35;12.95;;;;;;;-0.72;76.26465;95761.24;;;;
2022/01/16 05:11:38;;;;;;;26.35;12.95;;;;;;;-0.72;76.26465;95761.24;;;;
2022/01/16 05:12:42;;;;;;;26.35;12.95;;;;;;;-0.72;76.26465;95761.24;;;;
2022/01/16 05:18:52;;;;;;;28.1;14;;;;;;;-0.78;76.48242;95774.29;;;;
2022/01/16 05:19:53;;;;;;;28.1;14;;;;;;;-0.78;76.48242;95774.29;;;;
2022/01/16 05:20:54;;;;;;;28.1;14;;;;;;;-0.78;76.48242;95774.29;;;;
2022/01/16 05:21:54;;;;;;;28.1;14;;;;;;;-0.78;76.48242;95774.29;;;;
2022/01/16 05:22:55;;;;;;;28.1;14;;;;;;;-0.78;76.48242;95774.29;;;;
2022/01/16 05:23:55;;;;;;;28.1;14;;;;;;;-0.78;76.48242;95774.29;;;;
2022/01/16 05:24:56;;;;;;;28.1;14;;;;;;;-0.78;76.48242;95774.29;;;;
2022/01/16 05:25:56;;;;;;;28.1;14;;;;;;;-0.78;76.48242;95774.29;;;;
2022/01/16 05:26:57;;;;;;;28.1;14;;;;;;;-0.78;76.48242;95774.29;;;;
2022/01/16 05:27:57;;;;;;;28.1;14;;;;;;;-0.78;76.48242;95774.29;;;;
2022/01/16 05:28:58;;;;;;;32;15;;;;;;;-0.78;76.54492;95766.76;;;;
2022/01/16 05:29:58;;;;;;;32;15;;;;;;;-0.78;76.54492;95766.76;;;;
2022/01/16 05:30:59;;;;;;;32;15;;;;;;;-0.78;76.54492;95766.76;;;;
2022/01/16 05:31:59;;;;;;;32;15;;;;;;;-0.78;76.54492;95766.76;;;;
2022/01/16 05:33:00;;;;;;;32;15;;;;;;;-0.78;76.54492;95766.76;;;;
2022/01/16 05:34:00;;;;;;;32;15;;;;;;;-0.78;76.54492;95766.76;;;;
2022/01/16 05:35:01;;;;;;;32;15;;;;;;;-0.78;76.54492;95766.76;;;;
2022/01/16 05:36:02;;;;;;;32;15;;;;;;;-0.78;76.54492;95766.76;;;;
2022/01/16 05:37:03;;;;;;;32;15;;;;;;;-0.78;76.54492;95766.76;;;;
2022/01/16 05:38:04;;;;;;;32;15;;;;;;;-0.78;76.54492;95766.76;;;;
2022/01/16 05:39:05;;;;;;;32;15;;;;;;;-0.78;76.54492;95766.76;;;;
2022/01/16 05:40:05;;;;;;;29.95;14.35;;;;;;;-0.78;76.56543;95761.45;;;;
2022/01/16 05:41:06;;;;;;;29.95;14.35;;;;;;;-0.78;76.56543;95761.45;;;;
2022/01/16 05:42:07;;;;;;;29.95;14.35;;;;;;;-0.78;76.56543;95761.45;;;;
2022/01/16 05:43:08;;;;;;;29.95;14.35;;;;;;;-0.78;76.56543;95761.45;;;;
2022/01/16 05:44:09;;;;;;;29.95;14.35;;;;;;;-0.78;76.56543;95761.45;;;;
2022/01/16 05:45:10;;;;;;;29.95;14.35;;;;;;;-0.78;76.56543;95761.45;;;;
2022/01/16 05:46:10;;;;;;;29.95;14.35;;;;;;;-0.78;76.56543;95761.45;;;;
2022/01/16 05:47:12;;;;;;;29.95;14.35;;;;;;;-0.78;76.56543;95761.45;;;;
2022/01/16 05:48:13;;;;;;;29.95;14.35;;;;;;;-0.78;76.56543;95761.45;;;;
2022/01/16 05:49:14;;;;;;;29.95;14.35;;;;;;;-0.78;76.56543;95761.45;;;;
2022/01/16 05:50:14;;;;;;;30.35;14.8;;;;;;;-0.83;76.81738;95777.42;;;;
2022/01/16 05:51:16;;;;;;;30.35;14.8;;;;;;;-0.83;76.81738;95777.42;;;;
2022/01/16 05:52:17;;;;;;;30.35;14.8;;;;;;;-0.83;76.81738;95777.42;;;;
2022/01/16 05:53:17;;;;;;;30.35;14.8;;;;;;;-0.83;76.81738;95777.42;;;;
2022/01/16 05:54:18;;;;;;;30.35;14.8;;;;;;;-0.83;76.81738;95777.42;;;;
2022/01/16 05:55:18;;;;;;;30.35;14.8;;;;;;;-0.83;76.81738;95777.42;;;;
2022/01/16 05:56:20;;;;;;;30.35;14.8;;;;;;;-0.83;76.81738;95777.42;;;;
2022/01/16 05:57:20;;;;;;;30.35;14.8;;;;;;;-0.83;76.81738;95777.42;;;;
2022/01/16 05:58:21;;;;;;;30.35;14.8;;;;;;;-0.83;76.81738;95777.42;;;;
2022/01/16 05:59:21;;;;;;;30.35;14.8;;;;;;;-0.83;76.81738;95777.42;;;;
2022/01/16 06:00:22;;;;;;;30.35;14.8;;;;;;;-0.83;76.81738;95777.42;;;;
2022/01/16 06:01:23;;;;;;;29.3;16.35;;;;;;;-0.85;76.86621;95792.22;;;;
2022/01/16 06:02:24;;;;;;;29.3;16.35;;;;;;;-0.85;76.86621;95792.22;;;;
2022/01/16 06:03:24;;;;;;;29.3;16.35;;;;;;;-0.85;76.86621;95792.22;;;;
2022/01/16 06:04:25;;;;;;;29.3;16.35;;;;;;;-0.85;76.86621;95792.22;;;;
2022/01/16 06:05:25;;;;;;;29.3;16.35;;;;;;;-0.85;76.86621;95792.22;;;;
2022/01/16 06:06:27;;;;;;;29.3;16.35;;;;;;;-0.85;76.86621;95792.22;;;;
2022/01/16 06:07:28;;;;;;;29.3;16.35;;;;;;;-0.85;76.86621;95792.22;;;;
2022/01/16 06:08:28;;;;;;;29.3;16.35;;;;;;;-0.85;76.86621;95792.22;;;;
2022/01/16 06:09:29;;;;;;;29.3;16.35;;;;;;;-0.85;76.86621;95792.22;;;;
2022/01/16 06:10:29;;;;;;;29.3;16.35;;;;;;;-0.85;76.86621;95792.22;;;;
2022/01/16 06:11:30;;;;;;;0;0;;;;;;;0;0;0;;;;
2022/01/16 06:12:30;;;;;;;0;0;;;;;;;0;0;0;;;;
2022/01/16 06:13:31;;;;;;;0;0;;;;;;;0;0;0;;;;
2022/01/16 06:14:31;;;;;;;0;0;;;;;;;0;0;0;;;;
2022/01/16 06:15:32;;;;;;;0;0;;;;;;;0;0;0;;;;
2022/01/16 06:16:35;;;;;;;0;0;;;;;;;0;0;0;;;;
2022/01/16 06:17:35;;;;;;;0;0;;;;;;;0;0;0;;;;
2022/01/16 06:18:36;;;;;;;0;0;;;;;;;0;0;0;;;;
2022/01/16 06:19:36;;;;;;;0;0;;;;;;;0;0;0;;;;
2022/01/16 06:20:37;;;;;;;0;0;;;;;;;0;0;0;;;;
2022/01/16 06:21:38;;;;;;;0;0;;;;;;;0;0;0;;;;
2022/01/16 06:22:38;;;;;;;0;0;;;;;;;0;0;0;;;;
2022/01/16 06:23:39;;;;;;;0;0;;;;;;;0;0;0;;;;
2022/01/16 06:24:39;;;;;;;0;0;;;;;;;0;0;0;;;;
2022/01/16 06:25:40;;;;;;;0;0;;;;;;;0;0;0;;;;
2022/01/16 06:26:40;;;;;;;0;0;;;;;;;0;0;0;;;;
2022/01/16 06:27:41;;;;;;;0;0;;;;;;;0;0;0;;;;
2022/01/16 06:28:41;;;;;;;0;0;;;;;;;0;0;0;;;;
2022/01/16 06:29:42;;;;;;;0;0;;;;;;;0;0;0;;;;
2022/01/16 06:30:42;;;;;;;0;0;;;;;;;0;0;0;;;;
2022/01/16 06:31:43;;;;;;;0;0;;;;;;;0;0;0;;;;
2022/01/16 06:32:44;;;;;;;0;0;;;;;;;0;0;0;;;;
2022/01/16 06:33:44;;;;;;;0;0;;;;;;;0;0;0;;;;
2022/01/16 06:34:45;;;;;;;0;0;;;;;;;0;0;0;;;;
2022/01/16 06:35:45;;;;;;;0;0;;;;;;;0;0;0;;;;
2022/01/16 06:36:46;;;;;;;0;0;;;;;;;0;0;0;;;;
2022/01/16 06:37:46;;;;;;;0;0;;;;;;;0;0;0;;;;
2022/01/16 06:38:47;;;;;;;0;0;;;;;;;0;0;0;;;;
2022/01/16 06:39:47;;;;;;;0;0;;;;;;;0;0;0;;;;
2022/01/16 06:40:48;;;;;;;0;0;;;;;;;0;0;0;;;;
2022/01/16 06:41:48;;;;;;;28.25;15.05;;;;;;;-1.63;77.36914;95824.33;;;;